Time;durP1;ratioP1;P1;durP2;ratioP2;P2;SDS_P1;SDS_P2;PMS_P1;PMS_P2;Temp;Humidity;BMP_temperature;BMP_pressure;BME280_temperature;BME280_humidity;BME280_pressure;Samples;Min_cycle;Max_cycle;Signal;HPM_P1;HPM_P2
2023/05/21 00:01:42;;;;;;;19.08;16.95;;;;;;;17.44;63.62;100305.31;4142086;28;20048;-76
2023/05/21 00:03:45;;;;;;;20.02;17.85;;;;;;;17.48;63.38;100305.25;4144563;28;20063;-78
2023/05/21 00:05:48;;;;;;;24.58;18.65;;;;;;;17.41;63.35;100302.72;4145846;28;20504;-77
2023/05/21 00:07:53;;;;;;;20.77;17.02;;;;;;;17.36;63.76;100304.56;4142309;28;20041;-76
2023/05/21 00:09:56;;;;;;;22.80;18.35;;;;;;;17.49;63.26;100296.47;4143080;28;20044;-77
2023/05/21 00:11:59;;;;;;;21.52;17.58;;;;;;;17.34;63.69;100294.97;4143504;28;20046;-76
2023/05/21 00:14:03;;;;;;;21.85;18.15;;;;;;;17.31;63.79;100298.50;4145241;28;20068;-76
2023/05/21 00:16:07;;;;;;;23.33;19.13;;;;;;;17.25;63.99;100302.09;4145904;28;20041;-77
2023/05/21 00:18:10;;;;;;;22.25;18.50;;;;;;;17.19;64.23;100293.47;4146352;28;20054;-77
2023/05/21 00:20:15;;;;;;;23.27;18.15;;;;;;;17.30;63.97;100293.28;4145702;28;20048;-77
2023/05/21 00:22:18;;;;;;;20.90;18.30;;;;;;;17.25;64.24;100290.75;4145058;28;20045;-78
2023/05/21 00:24:21;;;;;;;20.83;17.52;;;;;;;17.15;64.39;100295.25;4146109;28;20034;-76
2023/05/21 00:26:24;;;;;;;22.98;18.98;;;;;;;17.23;64.02;100298.66;4146790;28;20455;-76
2023/05/21 00:28:31;;;;;;;20.25;17.30;;;;;;;17.20;64.18;100290.81;4144870;28;20069;-76
2023/05/21 00:30:36;;;;;;;23.50;18.25;;;;;;;17.18;64.78;100283.84;4128396;28;20125;-76
2023/05/21 00:32:38;;;;;;;23.55;17.48;;;;;;;17.22;64.31;100282.91;4143091;28;20608;-77
2023/05/21 00:34:41;;;;;;;21.83;18.45;;;;;;;17.12;64.92;100283.94;4146479;28;20046;-76
2023/05/21 00:36:45;;;;;;;22.15;18.10;;;;;;;17.11;64.68;100285.69;4144850;28;20077;-76
2023/05/21 00:38:48;;;;;;;25.02;20.83;;;;;;;17.04;64.62;100274.44;4144132;28;20041;-76
2023/05/21 00:40:51;;;;;;;22.02;17.73;;;;;;;17.01;65.15;100287.59;4144261;28;20072;-75
2023/05/21 00:42:55;;;;;;;24.17;19.20;;;;;;;17.04;64.97;100271.81;4144731;28;20072;-76
2023/05/21 00:44:59;;;;;;;21.35;18.35;;;;;;;16.99;65.31;100273.63;4151326;28;20125;-76
2023/05/21 00:47:05;;;;;;;20.77;18.58;;;;;;;17.08;64.64;100273.50;4147819;28;20052;-76
2023/05/21 00:49:08;;;;;;;20.70;18.33;;;;;;;16.93;65.32;100271.09;4133791;28;20100;-77
2023/05/21 00:51:12;;;;;;;24.60;19.83;;;;;;;16.92;65.47;100270.22;4132901;28;20054;-77
2023/05/21 00:53:17;;;;;;;23.00;18.38;;;;;;;17.00;65.29;100269.25;4152271;28;20126;-77
2023/05/21 00:55:20;;;;;;;22.65;18.17;;;;;;;16.98;65.43;100274.53;4156765;28;20045;-77
2023/05/21 00:57:26;;;;;;;24.35;19.30;;;;;;;16.92;65.44;100267.59;4149594;28;20121;-78
2023/05/21 00:59:31;;;;;;;24.00;19.63;;;;;;;17.04;65.13;100271.81;4140618;28;20435;-77
2023/05/21 01:01:35;;;;;;;21.23;18.23;;;;;;;16.94;65.32;100270.22;4144753;28;20037;-77
2023/05/21 01:03:40;;;;;;;24.90;18.42;;;;;;;16.91;65.33;100259.75;4127579;28;20096;-76
2023/05/21 01:05:43;;;;;;;23.20;19.10;;;;;;;16.97;65.18;100264.03;4158845;28;20036;-77
2023/05/21 01:07:47;;;;;;;26.08;18.52;;;;;;;16.96;65.12;100270.19;4129607;28;20559;-76
2023/05/21 01:09:50;;;;;;;22.02;19.10;;;;;;;16.95;65.27;100265.81;4143420;28;20045;-77
2023/05/21 01:11:54;;;;;;;26.50;18.60;;;;;;;16.93;65.36;100264.06;4145020;28;20038;-77
2023/05/21 01:13:57;;;;;;;22.02;18.50;;;;;;;16.92;65.08;100262.34;4124319;28;20077;-76
2023/05/21 01:16:01;;;;;;;22.90;18.88;;;;;;;16.92;65.47;100254.47;4142920;28;20048;-79
2023/05/21 01:18:04;;;;;;;21.90;17.95;;;;;;;16.88;65.55;100258.03;4143399;28;20537;-76
2023/05/21 01:20:10;;;;;;;24.73;18.27;;;;;;;16.83;65.57;100256.34;4141384;28;20038;-77
2023/05/21 01:22:14;;;;;;;22.10;18.05;;;;;;;16.83;65.68;100258.97;4141437;28;20049;-76
2023/05/21 01:24:19;;;;;;;20.30;16.95;;;;;;;16.82;65.67;100242.34;4143937;28;20357;-77
2023/05/21 01:26:24;;;;;;;22.20;17.77;;;;;;;16.87;65.57;100253.66;4150117;28;20049;-78
2023/05/21 01:28:28;;;;;;;24.00;19.45;;;;;;;16.87;65.72;100251.03;4152183;28;20049;-78
2023/05/21 01:30:31;;;;;;;24.73;19.23;;;;;;;16.82;65.61;100249.34;4120960;28;20038;-77
2023/05/21 01:32:42;;;;;;;21.85;17.58;;;;;;;16.85;65.62;100244.03;4133137;28;20360;-77
2023/05/21 01:34:59;;;;;;;25.05;18.75;;;;;;;16.87;65.97;100244.91;4129492;28;20049;-76
2023/05/21 01:37:12;;;;;;;27.38;19.70;;;;;;;16.94;65.50;100233.44;4142802;28;20496;-76
2023/05/21 01:39:21;;;;;;;25.27;18.75;;;;;;;16.87;65.44;100231.78;4127339;28;20117;-75
2023/05/21 01:41:27;;;;;;;25.00;18.17;;;;;;;16.87;65.70;100237.03;4143599;28;20124;-76
2023/05/21 01:43:33;;;;;;;20.73;17.05;;;;;;;16.87;65.54;100229.16;4143636;28;20492;-76
2023/05/21 01:45:39;;;;;;;22.67;17.80;;;;;;;16.73;65.76;100226.72;4126568;28;20133;-76
2023/05/21 01:47:46;;;;;;;23.65;17.58;;;;;;;16.70;65.91;100230.25;4132551;28;20488;-76
2023/05/21 01:49:52;;;;;;;24.48;19.80;;;;;;;16.69;66.34;100222.41;4141981;28;20036;-75
2023/05/21 01:51:55;;;;;;;23.20;19.17;;;;;;;16.72;66.07;100227.63;4142223;28;20034;-75
2023/05/21 01:53:58;;;;;;;24.10;19.13;;;;;;;16.73;65.95;100224.09;4142483;28;21454;-76
2023/05/21 01:56:03;;;;;;;23.02;18.38;;;;;;;16.66;66.50;100228.59;4142180;28;20048;-75
2023/05/21 01:58:06;;;;;;;23.27;18.77;;;;;;;16.74;66.25;100231.94;4140963;28;20076;-75
2023/05/21 02:00:10;;;;;;;22.17;18.92;;;;;;;16.79;65.67;100213.50;4117520;28;20070;-75
2023/05/21 02:02:21;;;;;;;22.55;18.77;;;;;;;16.68;66.22;100226.78;4125640;28;20105;-76
2023/05/21 02:04:23;;;;;;;23.65;17.77;;;;;;;16.62;66.42;100226.00;4151008;28;20049;-75
2023/05/21 02:06:26;;;;;;;25.65;18.83;;;;;;;16.64;66.42;100222.47;4150910;28;20042;-76
2023/05/21 02:08:30;;;;;;;26.17;18.45;;;;;;;16.64;66.61;100219.84;4120797;28;20054;-76
2023/05/21 02:10:33;;;;;;;23.15;18.10;;;;;;;16.68;66.28;100221.53;4124739;28;20464;-76
2023/05/21 02:12:37;;;;;;;24.85;19.25;;;;;;;16.61;66.63;100224.28;4125255;28;20130;-76
2023/05/21 02:14:40;;;;;;;22.08;17.48;;;;;;;16.57;66.82;100224.34;4143721;28;20072;-76
2023/05/21 02:16:43;;;;;;;23.85;19.42;;;;;;;16.54;66.72;100219.13;4125464;28;20070;-75
2023/05/21 02:18:50;;;;;;;24.27;18.27;;;;;;;16.52;66.92;100214.78;4141957;28;20542;-75
2023/05/21 02:20:53;;;;;;;20.70;17.63;;;;;;;16.50;67.19;100222.69;4142431;28;20038;-76
2023/05/21 02:22:56;;;;;;;24.40;19.48;;;;;;;16.56;66.87;100221.72;4142156;28;20153;-76
2023/05/21 02:24:59;;;;;;;21.60;17.70;;;;;;;16.65;66.61;100216.34;4141687;28;20048;-76
2023/05/21 02:27:02;;;;;;;21.58;17.60;;;;;;;16.56;66.69;100213.84;4141069;28;21328;-76
2023/05/21 02:29:06;;;;;;;22.35;18.40;;;;;;;16.58;66.51;100217.31;4141513;28;20033;-75
2023/05/21 02:31:10;;;;;;;22.95;19.02;;;;;;;16.54;66.79;100218.25;4141706;28;20041;-76
2023/05/21 02:33:14;;;;;;;25.58;17.02;;;;;;;16.57;66.75;100218.19;4125960;28;20038;-75
2023/05/21 02:35:17;;;;;;;23.35;19.23;;;;;;;16.57;66.81;100212.94;4139348;28;20077;-76
2023/05/21 02:37:20;;;;;;;21.63;17.90;;;;;;;16.51;67.01;100211.28;4142619;28;20484;-75
2023/05/21 02:39:23;;;;;;;20.75;17.35;;;;;;;16.49;66.91;100217.47;4142237;28;20157;-74
2023/05/21 02:41:26;;;;;;;24.80;20.05;;;;;;;16.56;66.88;100212.09;4142228;28;20558;-75
2023/05/21 02:43:29;;;;;;;23.63;19.17;;;;;;;16.54;66.62;100213.00;4142565;28;20034;-76
2023/05/21 02:45:34;;;;;;;21.38;17.10;;;;;;;16.52;66.65;100215.66;4142091;28;20416;-76
2023/05/21 02:47:38;;;;;;;20.63;17.00;;;;;;;16.52;66.88;100214.78;4139630;28;20046;-76
2023/05/21 02:49:42;;;;;;;23.95;17.95;;;;;;;16.47;67.05;100212.22;4141760;28;20064;-76
2023/05/21 02:51:45;;;;;;;21.08;16.98;;;;;;;16.48;66.92;100213.09;4140527;28;20488;-76
2023/05/21 02:53:48;;;;;;;24.98;17.88;;;;;;;16.49;66.77;100214.84;4142642;28;20108;-75
2023/05/21 02:55:51;;;;;;;22.02;17.60;;;;;;;16.40;67.37;100216.69;4144394;28;20108;-75
2023/05/21 02:57:54;;;;;;;23.92;19.05;;;;;;;16.41;67.36;100220.16;4154985;28;20052;-76
2023/05/21 02:59:57;;;;;;;27.48;19.25;;;;;;;16.39;67.25;100217.56;4145826;28;20089;-76
2023/05/21 03:02:01;;;;;;;22.02;16.85;;;;;;;16.42;67.27;100213.19;4145666;28;20034;-77
2023/05/21 03:04:04;;;;;;;21.75;17.90;;;;;;;16.42;67.55;100213.19;4145622;28;20041;-76
2023/05/21 03:06:08;;;;;;;22.65;17.25;;;;;;;16.44;67.06;100212.28;4146948;28;20492;-76
2023/05/21 03:08:11;;;;;;;19.35;15.75;;;;;;;16.34;67.30;100211.53;4145476;28;20048;-76
2023/05/21 03:10:15;;;;;;;21.27;16.63;;;;;;;16.40;67.28;100206.19;4145241;28;20164;-75
2023/05/21 03:12:18;;;;;;;23.33;17.80;;;;;;;16.44;67.55;100206.16;4144998;28;20539;-76
2023/05/21 03:14:23;;;;;;;;;;;;;;;16.50;66.97;100206.94;4145765;28;20033;-76
2023/05/21 03:16:27;;;;;;;19.00;16.40;;;;;;;16.40;67.10;100205.34;4143818;28;19961;-76
2023/05/21 03:18:31;;;;;;;23.40;17.17;;;;;;;16.47;67.03;100204.38;4143624;28;20128;-75
2023/05/21 03:20:34;;;;;;;20.58;16.90;;;;;;;16.37;67.11;100206.25;4144799;28;20045;-75
2023/05/21 03:22:37;;;;;;;23.33;18.08;;;;;;;16.47;67.10;100203.47;4144159;28;20042;-76
2023/05/21 03:24:40;;;;;;;23.25;18.38;;;;;;;16.42;66.94;100208.78;4145543;28;20037;-75
2023/05/21 03:26:44;;;;;;;19.13;14.55;;;;;;;16.46;66.71;100201.75;4128342;28;20077;-75
2023/05/21 03:28:46;;;;;;;20.92;17.45;;;;;;;16.41;66.95;100201.78;4143472;28;20052;-75
2023/05/21 03:30:50;;;;;;;23.45;18.05;;;;;;;16.39;67.38;100203.59;4142589;28;20370;-75
2023/05/21 03:33:12;;;;;;;24.60;17.08;;;;;;;16.33;67.06;100203.69;4145349;28;20684;-75
2023/05/21 03:35:18;;;;;;;24.13;17.35;;;;;;;16.34;67.57;100208.03;4144863;28;20050;-76
2023/05/21 03:37:21;;;;;;;23.40;18.02;;;;;;;16.33;67.48;100214.19;4144295;28;20401;-76
2023/05/21 03:39:24;;;;;;;22.35;17.65;;;;;;;16.31;67.77;100216.81;4146094;28;20049;-76
2023/05/21 03:41:27;;;;;;;19.70;16.35;;;;;;;16.22;67.79;100211.69;4146951;28;20073;-75
2023/05/21 03:43:36;;;;;;;20.75;17.63;;;;;;;16.23;67.91;100206.41;4144082;28;20081;-75
2023/05/21 03:45:39;;;;;;;24.10;19.48;;;;;;;16.29;67.61;100212.47;4143655;28;20042;-75
2023/05/21 03:48:08;;;;;;;22.63;18.15;;;;;;;16.28;67.41;100200.25;4145571;28;20034;-75
2023/05/21 03:50:11;;;;;;;20.67;17.02;;;;;;;16.21;68.17;100199.47;4144959;28;20045;-75
2023/05/21 03:52:15;;;;;;;23.48;18.73;;;;;;;16.28;67.90;100205.47;4144054;28;20046;-75
2023/05/21 03:54:18;;;;;;;19.85;16.08;;;;;;;16.28;67.64;100195.88;4144650;28;20038;-74
2023/05/21 03:56:23;;;;;;;27.83;18.52;;;;;;;16.26;67.73;100202.88;4133679;28;20042;-76
2023/05/21 03:58:26;;;;;;;25.70;18.83;;;;;;;16.29;67.67;100208.09;4149767;28;20587;-76
2023/05/21 04:00:31;;;;;;;23.90;18.13;;;;;;;16.19;68.04;100201.22;4149235;28;20042;-76
2023/05/21 04:02:34;;;;;;;22.10;18.15;;;;;;;16.23;67.69;100206.41;4144286;28;20037;-76
2023/05/21 04:04:37;;;;;;;21.45;17.67;;;;;;;16.25;68.21;100203.75;4145262;28;20120;-75
2023/05/21 04:06:43;;;;;;;25.35;18.13;;;;;;;16.27;67.96;100201.16;4144503;28;20041;-75
2023/05/21 04:08:48;;;;;;;26.88;18.67;;;;;;;16.25;68.11;100195.88;4123268;28;20133;-75
2023/05/21 04:10:51;;;;;;;24.17;18.85;;;;;;;16.25;68.26;100206.38;4128004;28;20228;-76
2023/05/21 04:12:54;;;;;;;23.83;18.10;;;;;;;16.27;67.85;100202.00;4143891;28;20102;-76
2023/05/21 04:14:57;;;;;;;22.13;18.35;;;;;;;16.22;67.86;100204.69;4145425;28;20034;-76
2023/05/21 04:17:03;;;;;;;27.45;17.65;;;;;;;16.20;68.17;100202.97;4158742;28;20056;-76
2023/05/21 04:19:06;;;;;;;24.55;18.70;;;;;;;16.28;68.13;100211.63;4159441;28;20033;-77
2023/05/21 04:21:09;;;;;;;25.98;18.33;;;;;;;16.26;68.05;100213.38;4142397;28;20093;-76
2023/05/21 04:23:12;;;;;;;27.02;19.45;;;;;;;16.24;68.13;100215.16;4145036;28;20148;-75
2023/05/21 04:25:16;;;;;;;22.10;17.67;;;;;;;16.26;67.80;100218.63;4144950;28;20038;-75
2023/05/21 04:27:22;;;;;;;21.27;17.75;;;;;;;16.36;67.47;100222.84;4142846;28;20041;-76
2023/05/21 04:29:26;;;;;;;27.88;20.42;;;;;;;16.33;67.73;100219.41;4143677;28;20041;-76
2023/05/21 04:31:29;;;;;;;19.42;17.10;;;;;;;16.31;67.55;100219.44;4144615;28;20034;-75
2023/05/21 04:33:32;;;;;;;23.20;18.27;;;;;;;16.28;67.72;100221.22;4126836;28;20053;-77
2023/05/21 04:35:35;;;;;;;22.50;18.23;;;;;;;16.29;68.35;100218.56;4143845;28;20048;-76
2023/05/21 04:37:40;;;;;;;24.52;18.38;;;;;;;16.36;67.51;100224.63;4144107;28;20511;-75
2023/05/21 04:39:44;;;;;;;19.90;16.23;;;;;;;16.27;67.64;100220.38;4144564;28;20037;-73
2023/05/21 04:41:49;;;;;;;21.83;17.15;;;;;;;16.33;67.59;100225.53;4143106;28;20080;-74
2023/05/21 04:43:54;;;;;;;25.25;19.55;;;;;;;16.27;68.37;100225.63;4144264;28;20518;-74
2023/05/21 04:46:00;;;;;;;22.48;17.40;;;;;;;16.29;68.18;100225.59;4127610;28;20512;-74
2023/05/21 04:48:04;;;;;;;22.55;17.60;;;;;;;16.39;67.68;100221.97;4142129;28;20050;-73
2023/05/21 04:50:09;;;;;;;22.55;17.65;;;;;;;16.37;67.79;100227.22;4146730;28;20042;-72
2023/05/21 04:52:12;;;;;;;23.42;18.60;;;;;;;16.32;68.00;100220.31;4145619;28;20523;-74
2023/05/21 04:54:15;;;;;;;23.48;17.55;;;;;;;16.36;67.26;100230.72;4132550;28;20050;-73
2023/05/21 04:56:18;;;;;;;23.15;17.85;;;;;;;16.36;67.79;100230.72;4142888;28;20045;-73
2023/05/21 04:58:23;;;;;;;23.77;17.70;;;;;;;16.41;67.52;100228.03;4142319;28;20117;-73
2023/05/21 05:00:26;;;;;;;17.85;15.60;;;;;;;16.44;67.21;100227.13;4128234;28;20074;-73
2023/05/21 05:02:29;;;;;;;21.27;17.13;;;;;;;16.48;67.47;100236.72;4142215;28;20046;-73
2023/05/21 05:04:32;;;;;;;22.50;17.33;;;;;;;16.49;67.36;100233.19;4143922;28;20121;-73
2023/05/21 05:06:36;;;;;;;21.42;16.25;;;;;;;16.39;67.59;100228.06;4141749;28;20396;-74
2023/05/21 05:08:40;;;;;;;26.75;18.83;;;;;;;16.45;67.70;100234.97;4147301;28;20038;-73
2023/05/21 05:10:43;;;;;;;23.70;17.70;;;;;;;16.40;67.96;100231.56;4139447;28;20037;-73
2023/05/21 05:12:46;;;;;;;22.27;17.60;;;;;;;16.43;67.83;100225.38;4147174;28;20084;-73
2023/05/21 05:14:51;;;;;;;23.60;17.75;;;;;;;16.52;67.35;100234.00;4138062;28;20042;-73
2023/05/21 05:16:58;;;;;;;20.77;17.13;;;;;;;16.49;67.77;100230.56;4145024;28;20586;-73
2023/05/21 05:19:02;;;;;;;20.92;17.48;;;;;;;16.46;67.64;100231.47;4146267;28;20039;-74
2023/05/21 05:21:05;;;;;;;19.83;15.52;;;;;;;16.52;67.62;100230.53;4147261;28;20069;-74
2023/05/21 05:23:08;;;;;;;21.95;17.50;;;;;;;16.54;67.60;100234.00;4130764;28;20052;-73
2023/05/21 05:25:11;;;;;;;22.15;17.83;;;;;;;16.61;67.22;100230.38;4145569;28;20050;-74
2023/05/21 05:27:14;;;;;;;20.60;17.92;;;;;;;16.64;67.07;100232.97;4134520;28;20153;-73
2023/05/21 05:29:18;;;;;;;21.30;17.23;;;;;;;16.68;67.04;100228.56;4147483;28;20576;-73
2023/05/21 05:31:24;;;;;;;21.88;16.60;;;;;;;16.60;67.16;100228.66;4146567;28;20053;-73
2023/05/21 05:33:28;;;;;;;24.95;17.23;;;;;;;16.65;67.10;100225.97;4145955;28;20068;-73
2023/05/21 05:35:31;;;;;;;22.27;18.20;;;;;;;16.65;66.98;100231.22;4145327;28;20137;-73
2023/05/21 05:37:34;;;;;;;23.60;18.25;;;;;;;16.63;67.12;100226.00;4147050;28;20045;-73
2023/05/21 05:39:36;;;;;;;21.20;17.80;;;;;;;16.64;67.05;100230.34;4159727;22;20037;-64
2023/05/21 05:41:39;;;;;;;21.50;16.73;;;;;;;16.63;67.19;100225.13;4136823;28;20042;-63
2023/05/21 05:43:42;;;;;;;23.55;17.30;;;;;;;16.62;67.02;100232.13;4162807;28;20048;-63
2023/05/21 05:45:45;;;;;;;21.13;17.15;;;;;;;16.62;67.49;100226.88;4129216;28;20030;-62
2023/05/21 05:47:51;;;;;;;21.73;17.50;;;;;;;16.69;67.32;100232.91;4146782;28;20416;-63
2023/05/21 05:49:54;;;;;;;23.35;17.15;;;;;;;16.79;66.93;100231.00;4146149;28;20073;-63
2023/05/21 05:51:57;;;;;;;19.13;16.02;;;;;;;16.82;66.61;100228.34;4148767;28;20034;-63
2023/05/21 05:54:00;;;;;;;21.92;17.98;;;;;;;16.82;66.87;100231.84;4146909;28;20535;-63
2023/05/21 05:56:03;;;;;;;23.38;17.20;;;;;;;16.91;66.85;100229.09;4133149;28;20492;-63
2023/05/21 05:58:06;;;;;;;22.00;16.55;;;;;;;17.02;66.35;100221.03;4130654;28;20042;-63
2023/05/21 06:00:22;;;;;;;20.15;17.08;;;;;;;17.09;66.28;100227.06;4128662;28;20046;-63
2023/05/21 06:02:26;;;;;;;19.73;15.68;;;;;;;17.10;66.23;100224.41;4114040;28;20413;-62
2023/05/21 06:04:30;;;;;;;18.60;16.10;;;;;;;17.20;65.81;100229.50;4144658;28;20092;-63
2023/05/21 06:06:33;;;;;;;19.38;15.32;;;;;;;17.25;65.71;100222.44;4129861;28;20050;-63
2023/05/21 06:08:36;;;;;;;22.48;15.98;;;;;;;17.28;65.77;100227.63;4147122;28;20096;-64
2023/05/21 06:10:40;;;;;;;20.10;16.85;;;;;;;17.32;65.70;100228.44;4131156;28;20075;-63
2023/05/21 06:12:42;;;;;;;19.05;14.65;;;;;;;17.43;65.70;100232.63;4119403;28;20040;-64
2023/05/21 06:14:47;;;;;;;20.27;16.58;;;;;;;17.55;65.39;100235.91;4129471;28;20046;-63
2023/05/21 06:16:50;;;;;;;18.00;14.75;;;;;;;17.55;65.19;100235.91;4137555;28;20105;-64
2023/05/21 06:18:54;;;;;;;21.63;15.57;;;;;;;17.68;65.15;100232.16;4127855;28;20049;-63
2023/05/21 06:20:58;;;;;;;21.10;15.73;;;;;;;17.80;64.86;100233.72;4130757;28;20042;-63
2023/05/21 06:23:02;;;;;;;22.85;16.58;;;;;;;17.85;64.45;100238.88;4135823;28;20093;-64
2023/05/21 06:25:06;;;;;;;18.55;15.27;;;;;;;17.96;63.84;100236.94;4145858;28;20034;-63
2023/05/21 06:27:10;;;;;;;20.05;16.98;;;;;;;18.01;63.39;100235.06;4146109;28;20048;-63
2023/05/21 06:29:13;;;;;;;19.95;16.42;;;;;;;18.08;63.58;100241.09;4126432;28;20389;-64
2023/05/21 06:31:17;;;;;;;25.65;17.50;;;;;;;18.14;63.12;100239.19;4145100;28;20065;-64
2023/05/21 06:33:20;;;;;;;21.52;16.67;;;;;;;18.21;62.87;100236.41;4126625;28;20692;-63
2023/05/21 06:35:23;;;;;;;21.70;15.30;;;;;;;18.25;63.31;100238.97;4129180;28;20556;-64
2023/05/21 06:37:28;;;;;;;18.10;15.10;;;;;;;18.40;62.82;100235.13;4128252;28;20042;-64
2023/05/21 06:39:31;;;;;;;18.55;15.27;;;;;;;18.60;62.29;100241.72;4130197;28;20055;-64
2023/05/21 06:41:34;;;;;;;19.30;15.55;;;;;;;18.65;62.27;100231.97;4129831;28;20046;-64
2023/05/21 06:43:48;;;;;;;18.90;14.20;;;;;;;18.72;61.89;100236.19;4130285;28;20102;-64
2023/05/21 06:46:11;;;;;;;20.90;16.95;;;;;;;18.80;61.68;100234.22;4125596;28;20364;-64
2023/05/21 06:48:15;;;;;;;18.40;15.65;;;;;;;18.97;61.88;100238.28;4129100;28;20473;-63
2023/05/21 06:50:19;;;;;;;20.70;16.92;;;;;;;19.07;61.12;100237.16;4129724;28;20066;-64
2023/05/21 06:52:22;;;;;;;20.88;15.95;;;;;;;19.16;61.25;100234.28;4143688;28;20042;-63
2023/05/21 06:54:26;;;;;;;24.95;16.20;;;;;;;19.22;60.80;100238.53;4140133;28;20060;-63
2023/05/21 06:56:29;;;;;;;21.15;17.05;;;;;;;19.42;60.36;100245.06;4141818;28;20038;-63
2023/05/21 06:58:32;;;;;;;20.98;15.38;;;;;;;19.41;60.52;100240.72;4141115;28;20423;-63
2023/05/21 07:00:35;;;;;;;22.90;17.70;;;;;;;19.57;60.44;100241.19;4154816;28;20041;-64
2023/05/21 07:02:39;;;;;;;20.25;16.23;;;;;;;19.71;59.95;100246.91;4121535;28;20598;-63
2023/05/21 07:04:42;;;;;;;23.65;17.10;;;;;;;19.83;59.29;100243.09;4137783;28;20049;-64
2023/05/21 07:06:45;;;;;;;21.25;16.55;;;;;;;19.94;58.97;100245.47;4122721;28;20412;-63
2023/05/21 07:08:48;;;;;;;19.38;16.65;;;;;;;19.86;59.00;100245.69;4120474;28;20081;-63
2023/05/21 07:10:53;;;;;;;20.90;16.25;;;;;;;19.92;59.25;100239.34;4124467;28;20066;-63
2023/05/21 07:12:56;;;;;;;;;;;;;;;20.12;58.61;100246.72;4124595;28;20157;-64
2023/05/21 07:15:06;;;;;;;25.17;15.52;;;;;;;20.14;58.25;100243.13;4143285;28;19921;-63
2023/05/21 07:17:54;;;;;;;19.77;14.77;;;;;;;20.22;57.98;100238.50;4120932;28;20475;-63
2023/05/21 07:20:22;;;;;;;20.08;16.67;;;;;;;20.31;57.75;100240.00;4145582;28;20567;-63
2023/05/21 07:22:28;;;;;;;19.40;15.27;;;;;;;20.33;57.75;100234.69;4129680;28;20057;-63
2023/05/21 07:24:31;;;;;;;17.13;14.63;;;;;;;20.46;57.73;100236.03;4113083;28;20047;-63
2023/05/21 07:26:39;;;;;;;21.88;15.40;;;;;;;20.66;57.20;100240.75;4131333;28;20042;-64
2023/05/21 07:28:42;;;;;;;19.27;15.82;;;;;;;20.76;56.36;100241.28;4146170;28;20081;-63
2023/05/21 07:30:45;;;;;;;14.47;12.93;;;;;;;20.70;56.68;100234.41;4129955;28;20142;-64
2023/05/21 07:32:53;;;;;;;22.27;16.23;;;;;;;20.78;56.94;100235.97;4129599;28;20420;-63
2023/05/21 07:34:56;;;;;;;19.02;15.82;;;;;;;20.84;56.69;100239.28;4113894;28;20084;-64
2023/05/21 07:37:01;;;;;;;16.58;14.40;;;;;;;20.78;57.14;100238.59;4145976;28;20503;-64
2023/05/21 07:39:04;;;;;;;16.05;12.68;;;;;;;20.82;57.24;100237.59;4128052;28;20062;-63
2023/05/21 07:41:07;;;;;;;16.27;13.27;;;;;;;21.01;55.71;100235.22;4125592;28;20082;-64
2023/05/21 07:43:12;;;;;;;15.50;13.25;;;;;;;21.14;55.76;100230.41;4143624;28;20124;-63
2023/05/21 07:45:16;;;;;;;17.95;14.48;;;;;;;21.31;54.79;100224.56;4143672;28;20068;-64
2023/05/21 07:47:22;;;;;;;18.73;13.27;;;;;;;21.32;54.83;100220.97;4145233;28;20488;-63
2023/05/21 07:49:25;;;;;;;15.75;12.93;;;;;;;;;;4128433;28;21592;-64
2023/05/21 07:51:28;;;;;;;14.88;13.27;;;;;;;21.51;54.55;100224.75;4112577;28;20042;-63
2023/05/21 07:53:32;;;;;;;17.55;12.88;;;;;;;21.34;55.31;100219.16;4128355;28;20045;-63
2023/05/21 07:55:46;;;;;;;18.23;13.65;;;;;;;21.30;55.25;100223.69;4145599;28;20038;-63
2023/05/21 07:57:51;;;;;;;13.73;11.43;;;;;;;21.23;55.95;100227.44;4142267;28;20052;-63
2023/05/21 08:00:00;;;;;;;15.13;13.45;;;;;;;21.36;55.36;100223.50;4148649;28;20096;-63
2023/05/21 08:02:07;;;;;;;14.15;12.38;;;;;;;21.48;55.45;100222.19;4129965;28;20050;-63
2023/05/21 08:04:16;;;;;;;15.82;13.15;;;;;;;21.63;54.12;100220.81;4143060;28;20100;-64
2023/05/21 08:06:21;;;;;;;15.73;13.25;;;;;;;21.70;53.81;100222.34;4144017;28;20125;-63
2023/05/21 08:08:25;;;;;;;15.57;12.98;;;;;;;21.74;54.28;100229.25;4144425;28;20045;-59
2023/05/21 08:10:30;;;;;;;17.10;13.73;;;;;;;21.82;53.89;100226.31;4115640;28;20039;-60
2023/05/21 08:12:33;;;;;;;14.75;12.95;;;;;;;22.01;52.54;100226.50;4128340;28;20508;-60
2023/05/21 08:14:36;;;;;;;17.90;12.32;;;;;;;21.96;53.77;100223.16;4143150;28;20563;-59
2023/05/21 08:16:41;;;;;;;15.55;12.85;;;;;;;22.01;53.42;100223.00;4143064;28;20069;-59
2023/05/21 08:18:44;;;;;;;15.63;13.02;;;;;;;22.08;53.79;100221.84;4138701;28;20047;-59
2023/05/21 08:20:47;;;;;;;14.38;12.38;;;;;;;22.04;53.34;100225.53;4122584;28;20042;-59
2023/05/21 08:22:53;;;;;;;15.05;12.85;;;;;;;22.26;51.68;100225.59;4141048;28;20034;-60
2023/05/21 08:24:57;;;;;;;15.70;14.00;;;;;;;22.22;51.85;100219.53;4141086;28;20446;-59
2023/05/21 08:26:59;;;;;;;14.15;11.30;;;;;;;21.97;52.48;100216.94;4141426;28;20037;-60
2023/05/21 08:29:06;;;;;;;21.55;13.60;;;;;;;22.03;52.43;100214.06;4139538;28;20084;-59
2023/05/21 08:31:09;;;;;;;16.35;12.73;;;;;;;21.96;53.78;100212.56;4136427;28;20050;-59
2023/05/21 08:33:13;;;;;;;15.75;13.02;;;;;;;21.92;53.19;100222.41;4141332;28;20046;-59
2023/05/21 08:35:16;;;;;;;;;;;;;;;21.97;53.05;100219.59;4127040;28;20070;-59
2023/05/21 08:37:31;;;;;;;14.93;10.20;;;;;;;21.93;52.63;100212.69;4125791;28;19930;-61
2023/05/21 08:39:54;;;;;;;17.63;12.40;;;;;;;22.03;52.51;100213.22;4123456;28;20061;-59
2023/05/21 08:42:03;;;;;;;14.10;12.60;;;;;;;22.08;51.86;100211.28;4128303;28;20432;-59
2023/05/21 08:44:11;;;;;;;15.02;11.85;;;;;;;21.91;52.75;100218.03;4126988;28;20115;-60
2023/05/21 08:46:17;;;;;;;15.57;12.65;;;;;;;21.99;52.64;100222.19;4127830;28;20034;-59
2023/05/21 08:48:23;;;;;;;14.15;12.65;;;;;;;21.91;52.39;100220.69;4141217;28;20061;-59
2023/05/21 08:50:28;;;;;;;14.65;11.60;;;;;;;21.94;52.30;100217.06;4127598;28;20140;-59
2023/05/21 08:52:34;;;;;;;15.05;11.75;;;;;;;22.00;52.21;100222.13;4138835;28;20076;-60
2023/05/21 08:54:38;;;;;;;14.30;10.60;;;;;;;21.97;52.51;100216.94;4142828;28;20065;-59
2023/05/21 08:56:45;;;;;;;12.77;11.13;;;;;;;22.05;51.72;100209.59;4126787;28;20027;-60
2023/05/21 08:58:49;;;;;;;15.50;11.48;;;;;;;22.02;52.00;100212.34;4139505;28;20356;-59
2023/05/21 09:00:55;;;;;;;20.20;12.10;;;;;;;22.10;51.81;100214.72;4140254;28;20062;-59
2023/05/21 09:03:06;;;;;;;17.02;11.55;;;;;;;22.20;51.72;100218.72;4158279;28;20041;-59
2023/05/21 09:05:12;;;;;;;13.75;11.85;;;;;;;22.17;51.68;100226.78;4126232;28;20503;-59
2023/05/21 09:07:15;;;;;;;14.75;12.07;;;;;;;22.13;51.46;100222.53;4126218;28;20401;-59
2023/05/21 09:09:45;;;;;;;16.60;11.93;;;;;;;22.04;51.84;100223.75;4130245;28;20042;-59
2023/05/21 09:11:49;;;;;;;14.82;11.75;;;;;;;22.02;52.19;100222.06;4141274;28;20097;-59
2023/05/21 09:13:53;;;;;;;18.05;12.15;;;;;;;21.96;51.89;100224.03;4141820;28;20521;-59
2023/05/21 09:16:04;;;;;;;12.25;10.88;;;;;;;21.93;52.92;100226.78;4141660;28;20528;-59
2023/05/21 09:18:06;;;;;;;14.23;11.33;;;;;;;22.03;52.44;100223.78;4112368;28;20484;-60
2023/05/21 09:20:31;;;;;;;13.10;10.50;;;;;;;22.03;52.89;100219.34;4128553;28;20078;-59
2023/05/21 09:22:37;;;;;;;12.38;11.07;;;;;;;22.36;51.39;100218.19;4110644;28;20046;-59
2023/05/21 09:24:40;;;;;;;14.55;11.73;;;;;;;22.39;51.37;100223.38;4145977;28;20034;-60
2023/05/21 09:26:43;;;;;;;14.25;12.50;;;;;;;22.52;51.95;100218.47;4145867;28;20048;-60
2023/05/21 09:28:47;;;;;;;13.35;10.93;;;;;;;22.64;51.80;100216.16;4146784;28;20041;-60
2023/05/21 09:30:53;;;;;;;14.68;12.50;;;;;;;22.80;51.96;100226.16;4119164;28;20105;-60